createdAt,value
2023-03-30T00:02:22.554Z,52.20
2023-03-30T00:04:50.774Z,52.20
2023-03-30T00:07:19.431Z,52.20
2023-03-30T00:09:47.296Z,52.20
2023-03-30T00:12:20.572Z,52.10
2023-03-30T00:14:50.273Z,52.10
2023-03-30T00:17:18.571Z,52.20
2023-03-30T00:19:46.763Z,52.20
2023-03-30T00:22:14.624Z,52.20
2023-03-30T00:24:42.448Z,52.20
2023-03-30T00:27:10.449Z,52.20
2023-03-30T00:29:38.307Z,52.20
2023-03-30T00:32:07.785Z,52.10
2023-03-30T00:34:36.378Z,52.20
2023-03-30T00:37:04.304Z,52.20
2023-03-30T00:39:33.726Z,52.20
2023-03-30T00:42:01.815Z,52.20
2023-03-30T00:45:08.088Z,52.20
2023-03-30T00:47:41.311Z,52.20
2023-03-30T00:50:10.586Z,52.20
2023-03-30T00:52:39.851Z,52.20
2023-03-30T00:55:10.865Z,52.10
2023-03-30T00:57:41.777Z,52.10
2023-03-30T01:00:11.963Z,52.20
2023-03-30T01:02:46.118Z,52.10
2023-03-30T01:05:14.414Z,52.10
2023-03-30T01:07:43.614Z,52.10
2023-03-30T01:10:12.618Z,52.10
2023-03-30T01:12:41.272Z,52.10
2023-03-30T01:15:10.297Z,52.10
2023-03-30T01:18:00.463Z,52.20
2023-03-30T01:21:01.030Z,52.20
2023-03-30T01:24:04.376Z,52.10
2023-03-30T01:26:49.054Z,52.20
2023-03-30T01:29:25.123Z,52.20
2023-03-30T01:32:16.843Z,52.10
2023-03-30T01:35:15.875Z,52.20
2023-03-30T01:38:16.406Z,52.20
2023-03-30T01:40:52.699Z,52.30
2023-03-30T01:43:28.102Z,52.30
2023-03-30T01:46:03.221Z,52.20
2023-03-30T01:48:39.417Z,52.30
2023-03-30T01:51:09.849Z,52.30
2023-03-30T01:53:43.610Z,52.30
2023-03-30T01:56:16.353Z,52.30
2023-03-30T01:58:48.162Z,52.30
2023-03-30T02:01:20.616Z,52.30
2023-03-30T02:03:53.397Z,52.30
2023-03-30T02:06:25.646Z,52.30
2023-03-30T02:08:55.754Z,52.30
2023-03-30T02:11:26.525Z,52.30
2023-03-30T02:13:58.529Z,52.30
2023-03-30T02:16:34.134Z,52.30
2023-03-30T02:19:02.434Z,52.30
2023-03-30T02:21:30.310Z,52.30
2023-03-30T02:23:59.932Z,52.30
2023-03-30T02:26:30.085Z,52.30
2023-03-30T02:28:57.984Z,52.30
2023-03-30T02:31:25.972Z,52.30
2023-03-30T02:34:09.552Z,52.30
2023-03-30T02:36:50.844Z,52.30
2023-03-30T02:39:28.808Z,52.30
2023-03-30T02:42:20.085Z,52.30
2023-03-30T02:44:57.974Z,52.30
2023-03-30T02:47:35.897Z,52.30
2023-03-30T02:50:11.204Z,52.30
2023-03-30T02:52:47.292Z,52.30
2023-03-30T02:55:21.117Z,52.30
2023-03-30T02:58:02.076Z,52.30
2023-03-30T03:00:37.273Z,52.30
2023-03-30T03:03:12.250Z,52.30
2023-03-30T03:05:42.836Z,52.30
2023-03-30T03:08:13.715Z,52.30
2023-03-30T03:10:41.593Z,52.30
2023-03-30T03:13:11.638Z,52.30
2023-03-30T03:15:40.013Z,52.90
2023-03-30T03:18:07.963Z,52.30
2023-03-30T03:20:35.798Z,52.30
2023-03-30T03:23:03.838Z,52.30
2023-03-30T03:25:31.799Z,52.30
2023-03-30T03:27:59.678Z,52.30
2023-03-30T03:30:28.957Z,52.30
2023-03-30T03:32:57.000Z,52.30
2023-03-30T03:35:25.121Z,52.30
2023-03-30T03:37:52.969Z,52.30
2023-03-30T03:40:20.823Z,52.30
2023-03-30T03:42:48.712Z,52.30
2023-03-30T03:45:16.702Z,52.30
2023-03-30T03:47:45.900Z,52.40
2023-03-30T03:50:14.127Z,52.30
2023-03-30T03:52:41.990Z,52.40
2023-03-30T03:55:10.475Z,52.40
2023-03-30T03:57:38.563Z,52.30
2023-03-30T04:00:15.641Z,52.40
2023-03-30T04:02:45.422Z,52.30
2023-03-30T04:05:13.390Z,52.30
2023-03-30T04:07:41.534Z,52.30
2023-03-30T04:10:10.255Z,52.40
2023-03-30T04:12:38.910Z,52.40
2023-03-30T04:15:08.355Z,52.40
2023-03-30T04:17:37.139Z,52.40
2023-03-30T04:20:11.527Z,52.40
2023-03-30T04:22:41.855Z,52.40
2023-03-30T04:25:11.569Z,52.40
2023-03-30T04:27:42.696Z,52.40
2023-03-30T04:30:11.905Z,52.40
2023-03-30T04:32:41.176Z,52.40
2023-03-30T04:35:11.834Z,52.40
2023-03-30T04:37:42.095Z,52.40
2023-03-30T04:40:10.981Z,52.40
2023-03-30T04:42:38.846Z,52.50
2023-03-30T04:45:08.734Z,52.40
2023-03-30T04:47:36.907Z,52.40
2023-03-30T04:50:05.700Z,52.50
2023-03-30T04:52:35.002Z,52.40
2023-03-30T04:55:02.923Z,52.40
2023-03-30T04:57:31.470Z,52.50
2023-03-30T04:59:59.372Z,52.40
2023-03-30T05:02:27.555Z,52.40
2023-03-30T05:04:55.546Z,52.40
2023-03-30T05:07:23.433Z,52.40
2023-03-30T05:09:52.803Z,52.50
2023-03-30T05:12:21.652Z,52.40
2023-03-30T05:14:49.504Z,52.50
2023-03-30T05:17:17.432Z,52.40
2023-03-30T05:19:46.585Z,52.40
2023-03-30T05:22:15.547Z,52.50
2023-03-30T05:24:43.422Z,52.50
2023-03-30T05:27:13.686Z,52.40
2023-03-30T05:29:41.549Z,52.50
2023-03-30T05:32:09.666Z,52.50
2023-03-30T05:34:37.641Z,52.50
2023-03-30T05:37:05.507Z,52.50
2023-03-30T05:39:33.361Z,52.50
2023-03-30T05:42:01.609Z,52.50
2023-03-30T05:44:30.903Z,52.50
2023-03-30T05:46:58.752Z,52.50
2023-03-30T05:49:26.632Z,52.50
2023-03-30T05:51:54.494Z,52.50
2023-03-30T05:54:22.652Z,52.40
2023-03-30T05:56:52.301Z,52.60
2023-03-30T05:59:21.306Z,52.50
2023-03-30T06:01:50.549Z,52.50
2023-03-30T06:04:19.208Z,52.50
2023-03-30T06:06:47.073Z,52.50
2023-03-30T06:09:15.350Z,52.50
2023-03-30T06:11:43.187Z,52.50
2023-03-30T06:14:11.052Z,52.50
2023-03-30T06:16:39.195Z,52.50
2023-03-30T06:19:08.466Z,52.50
2023-03-30T06:21:36.287Z,52.60
2023-03-30T06:24:04.333Z,52.50
2023-03-30T06:26:32.188Z,52.60
2023-03-30T06:29:00.101Z,52.50
2023-03-30T06:31:29.125Z,52.50
2023-03-30T06:33:57.264Z,52.50
2023-03-30T06:36:44.437Z,52.50
2023-03-30T06:39:14.205Z,52.50
2023-03-30T06:41:42.166Z,52.50
2023-03-30T06:44:14.587Z,52.60
2023-03-30T06:46:42.678Z,52.50
2023-03-30T06:49:12.905Z,52.50
2023-03-30T06:51:42.164Z,52.50
2023-03-30T06:54:10.106Z,52.50
2023-03-30T06:56:37.938Z,52.50
2023-03-30T06:59:07.065Z,52.50
2023-03-30T07:01:34.978Z,52.60
2023-03-30T07:04:03.044Z,52.50
2023-03-30T07:06:31.052Z,52.50
2023-03-30T07:09:00.249Z,52.50
2023-03-30T07:11:28.150Z,52.60
2023-03-30T07:13:58.289Z,52.50
2023-03-30T07:16:26.266Z,52.60
2023-03-30T07:18:54.160Z,52.60
2023-03-30T07:21:22.017Z,52.60
2023-03-30T07:23:50.968Z,52.70
2023-03-30T07:26:20.322Z,52.70
2023-03-30T07:28:48.206Z,52.60
2023-03-30T07:31:17.296Z,52.60
2023-03-30T07:33:45.633Z,53.30
2023-03-30T07:36:13.579Z,52.80
2023-03-30T07:38:41.665Z,52.70
2023-03-30T07:41:10.715Z,52.70
2023-03-30T07:43:41.500Z,52.70
2023-03-30T07:46:11.871Z,52.70
2023-03-30T07:48:40.224Z,52.70
2023-03-30T07:51:09.913Z,52.70
2023-03-30T07:53:38.132Z,52.70
2023-03-30T07:56:06.791Z,52.70
2023-03-30T07:58:34.843Z,52.70
2023-03-30T08:01:05.021Z,52.70
2023-03-30T08:03:33.790Z,52.70
2023-03-30T08:06:05.536Z,52.70
2023-03-30T08:08:34.073Z,52.70
2023-03-30T08:11:02.466Z,52.70
2023-03-30T08:13:32.741Z,52.70
2023-03-30T08:16:00.647Z,52.70
2023-03-30T08:18:29.865Z,52.70
2023-03-30T08:20:57.792Z,52.70
2023-03-30T08:23:25.615Z,52.70
2023-03-30T08:25:57.020Z,52.70
2023-03-30T08:28:25.717Z,52.70
2023-03-30T08:30:54.598Z,52.70
2023-03-30T08:33:23.140Z,52.80
2023-03-30T08:35:52.486Z,52.70
2023-03-30T08:38:20.464Z,52.80
2023-03-30T08:40:50.172Z,52.80
2023-03-30T08:43:31.632Z,52.80
2023-03-30T08:46:00.934Z,52.80
2023-03-30T08:48:32.409Z,52.80
2023-03-30T08:51:07.116Z,52.80
2023-03-30T08:53:35.828Z,52.80
2023-03-30T08:56:10.497Z,52.80
2023-03-30T08:58:46.483Z,52.80
2023-03-30T09:01:21.643Z,52.80
2023-03-30T09:04:02.320Z,52.80
2023-03-30T09:06:45.684Z,52.80
2023-03-30T09:09:17.490Z,52.80
2023-03-30T09:11:46.961Z,52.80
2023-03-30T09:14:20.639Z,52.80
2023-03-30T09:16:53.917Z,52.90
2023-03-30T09:19:25.918Z,52.80
2023-03-30T09:21:57.605Z,52.80
2023-03-30T09:24:27.304Z,52.80
2023-03-30T09:27:03.240Z,52.80
2023-03-30T09:29:34.282Z,52.80
2023-03-30T09:32:05.963Z,52.80
2023-03-30T09:34:40.795Z,52.80
2023-03-30T09:37:13.198Z,52.80
2023-03-30T09:39:42.176Z,52.80
2023-03-30T09:42:18.226Z,52.80
2023-03-30T09:44:48.815Z,52.80
2023-03-30T09:47:25.485Z,52.80
2023-03-30T09:49:58.609Z,52.80
2023-03-30T09:52:29.641Z,52.80
2023-03-30T09:54:57.740Z,52.80
2023-03-30T09:57:29.905Z,52.80
2023-03-30T09:59:59.805Z,52.80
2023-03-30T10:02:31.356Z,52.80
2023-03-30T10:05:02.844Z,53.00
2023-03-30T10:07:35.626Z,52.90
2023-03-30T10:10:15.765Z,52.90
2023-03-30T10:12:43.978Z,52.80
2023-03-30T10:15:17.928Z,52.80
2023-03-30T10:17:48.884Z,52.90
2023-03-30T10:20:24.891Z,52.80
2023-03-30T10:22:56.413Z,52.80
2023-03-30T10:25:27.383Z,52.80
2023-03-30T10:27:58.783Z,53.50
2023-03-30T10:30:28.464Z,52.80
2023-03-30T10:33:00.235Z,52.80
2023-03-30T10:35:33.952Z,52.80
2023-03-30T10:38:04.989Z,52.80
2023-03-30T10:40:36.632Z,52.90
2023-03-30T10:43:07.279Z,52.90
2023-03-30T10:45:39.027Z,52.80
2023-03-30T10:48:21.216Z,52.80
2023-03-30T10:50:57.308Z,52.90
2023-03-30T10:53:40.850Z,52.90
2023-03-30T10:56:20.248Z,52.90
2023-03-30T10:59:08.542Z,52.90
2023-03-30T11:01:42.843Z,52.90
2023-03-30T11:04:23.650Z,52.90
2023-03-30T11:06:54.079Z,52.90
2023-03-30T11:09:28.404Z,52.90
2023-03-30T11:11:59.302Z,52.90
2023-03-30T11:14:41.578Z,53.00
2023-03-30T11:17:15.729Z,52.90
2023-03-30T11:19:49.457Z,53.00
2023-03-30T11:22:28.136Z,53.00
2023-03-30T11:24:58.823Z,52.90
2023-03-30T11:27:30.755Z,53.00
2023-03-30T11:30:03.077Z,52.90
2023-03-30T11:32:38.890Z,52.90
2023-03-30T11:35:15.215Z,53.00
2023-03-30T11:37:49.257Z,52.90
2023-03-30T11:40:24.147Z,53.00
2023-03-30T11:42:54.023Z,53.00
2023-03-30T11:45:42.433Z,52.90
2023-03-30T11:48:31.958Z,53.00
2023-03-30T11:51:15.236Z,52.90
2023-03-30T11:53:54.453Z,52.90
2023-03-30T11:56:33.221Z,52.90
2023-03-30T11:59:06.767Z,53.00
2023-03-30T12:01:58.152Z,53.00
2023-03-30T12:04:31.754Z,53.00
2023-03-30T12:07:02.569Z,52.90
2023-03-30T12:09:35.359Z,53.00
2023-03-30T12:12:15.618Z,53.00
2023-03-30T12:15:01.554Z,53.00
2023-03-30T12:17:40.869Z,53.00
2023-03-30T12:20:20.352Z,53.00
2023-03-30T12:22:53.499Z,53.00
2023-03-30T12:25:29.278Z,53.00
2023-03-30T12:28:11.098Z,53.00
2023-03-30T12:30:44.980Z,53.00
2023-03-30T12:33:19.249Z,53.00
2023-03-30T12:35:59.130Z,53.00
2023-03-30T12:38:29.850Z,53.00
2023-03-30T12:41:14.083Z,53.00
2023-03-30T12:44:03.114Z,53.00
2023-03-30T12:46:38.051Z,53.00
2023-03-30T12:49:12.819Z,53.00
2023-03-30T12:51:54.679Z,53.00
2023-03-30T12:54:42.155Z,53.00
2023-03-30T12:57:23.215Z,53.10
2023-03-30T13:00:26.877Z,53.10
2023-03-30T13:03:27.965Z,53.10
2023-03-30T13:05:58.913Z,53.10
2023-03-30T13:08:32.744Z,53.70
2023-03-30T13:11:08.775Z,53.10
2023-03-30T13:13:49.716Z,53.10
2023-03-30T13:17:07.074Z,53.10
2023-03-30T13:19:51.261Z,53.10
2023-03-30T13:22:28.001Z,53.10
2023-03-30T13:24:59.184Z,53.10
2023-03-30T13:27:32.714Z,53.10
2023-03-30T13:30:02.374Z,53.00
2023-03-30T13:33:11.527Z,53.10
2023-03-30T13:35:51.983Z,53.00
2023-03-30T13:38:40.091Z,53.10
2023-03-30T13:41:31.651Z,53.10
2023-03-30T13:44:17.605Z,53.10
2023-03-30T13:46:52.034Z,53.10
2023-03-30T13:49:36.769Z,53.10
2023-03-30T13:52:11.754Z,53.10
2023-03-30T13:54:41.868Z,53.10
2023-03-30T13:57:11.892Z,53.10
2023-03-30T13:59:43.622Z,53.10
2023-03-30T14:02:15.851Z,53.10
2023-03-30T14:04:45.374Z,53.10
2023-03-30T14:07:17.067Z,53.10
2023-03-30T14:10:04.671Z,53.10
2023-03-30T14:12:33.742Z,53.10
2023-03-30T14:15:02.679Z,53.10
2023-03-30T14:17:30.698Z,53.10
2023-03-30T14:20:09.642Z,53.10
2023-03-30T14:22:43.103Z,53.10
2023-03-30T14:25:26.243Z,53.10
2023-03-30T14:27:56.852Z,53.20
2023-03-30T14:30:29.368Z,53.10
2023-03-30T14:33:10.877Z,53.20
2023-03-30T14:35:42.897Z,53.80
2023-03-30T14:38:17.602Z,53.20
2023-03-30T14:40:46.306Z,53.20
2023-03-30T14:43:15.849Z,53.20
2023-03-30T14:45:44.704Z,53.10
2023-03-30T14:48:23.888Z,53.20
2023-03-30T14:50:51.864Z,53.10
2023-03-30T14:53:25.932Z,53.10
2023-03-30T14:55:57.220Z,53.10
2023-03-30T14:58:27.176Z,53.20
2023-03-30T15:00:58.850Z,53.10
2023-03-30T15:03:34.067Z,53.00
2023-03-30T15:06:03.531Z,53.10
2023-03-30T15:08:34.919Z,53.10
2023-03-30T15:11:08.016Z,53.10
2023-03-30T15:13:40.223Z,53.10
2023-03-30T15:16:08.772Z,53.10
2023-03-30T15:18:37.777Z,53.10
2023-03-30T15:21:06.179Z,53.10
2023-03-30T15:23:40.764Z,53.10
2023-03-30T15:26:09.193Z,53.10
2023-03-30T15:28:43.306Z,53.10
2023-03-30T15:31:13.683Z,53.10
2023-03-30T15:33:44.124Z,53.10
2023-03-30T15:36:14.611Z,53.10
2023-03-30T15:38:49.649Z,53.10
2023-03-30T15:41:19.415Z,53.10
2023-03-30T15:44:11.111Z,53.10
2023-03-30T15:46:39.691Z,53.00
2023-03-30T15:49:08.382Z,53.10
2023-03-30T15:51:40.592Z,53.10
2023-03-30T15:54:13.803Z,53.10
2023-03-30T15:56:43.520Z,53.10
2023-03-30T15:59:15.271Z,53.10
2023-03-30T16:01:48.699Z,53.10
2023-03-30T16:04:19.121Z,53.10
2023-03-30T16:06:47.561Z,53.00
2023-03-30T16:09:17.542Z,53.10
2023-03-30T16:11:46.608Z,53.20
2023-03-30T16:14:17.747Z,53.10
2023-03-30T16:16:45.742Z,53.10
2023-03-30T16:19:14.635Z,53.10
2023-03-30T16:21:45.145Z,53.00
2023-03-30T16:24:13.611Z,53.00
2023-03-30T16:26:42.885Z,53.00
2023-03-30T16:29:19.587Z,53.00
2023-03-30T16:31:47.492Z,53.00
2023-03-30T16:34:15.478Z,52.90
2023-03-30T16:36:43.952Z,52.90
2023-03-30T16:39:18.670Z,52.90
2023-03-30T16:41:49.398Z,52.90
2023-03-30T16:44:17.838Z,53.00
2023-03-30T16:46:46.776Z,52.90
2023-03-30T16:49:16.542Z,52.90
2023-03-30T16:51:45.119Z,52.90
2023-03-30T16:54:27.174Z,52.90
2023-03-30T16:56:59.473Z,52.90
2023-03-30T16:59:30.303Z,53.60
2023-03-30T17:01:59.119Z,53.00
2023-03-30T17:04:27.177Z,53.00
2023-03-30T17:06:55.678Z,53.00
2023-03-30T17:09:23.863Z,53.00
2023-03-30T17:11:52.006Z,53.00
2023-03-30T17:14:23.307Z,53.00
2023-03-30T17:16:51.317Z,53.00
2023-03-30T17:19:19.225Z,53.00
2023-03-30T17:21:47.089Z,53.00
2023-03-30T17:24:16.839Z,53.00
2023-03-30T17:26:44.817Z,53.00
2023-03-30T17:29:12.733Z,53.00
2023-03-30T17:31:45.573Z,53.00
2023-03-30T17:34:14.541Z,53.00
2023-03-30T17:36:42.511Z,53.00
2023-03-30T17:39:13.700Z,53.00
2023-03-30T17:41:41.691Z,53.00
2023-03-30T17:44:09.544Z,52.90
2023-03-30T17:46:37.530Z,52.90
2023-03-30T17:49:15.940Z,52.90
2023-03-30T17:51:43.850Z,52.90
2023-03-30T17:54:11.702Z,52.90
2023-03-30T17:56:39.608Z,52.90
2023-03-30T17:59:10.637Z,52.90
2023-03-30T18:01:38.717Z,52.90
2023-03-30T18:04:08.311Z,53.00
2023-03-30T18:06:36.248Z,52.90
2023-03-30T18:09:04.136Z,52.90
2023-03-30T18:11:31.985Z,52.90
2023-03-30T18:13:59.857Z,52.90
2023-03-30T18:16:27.954Z,52.90
2023-03-30T18:18:57.822Z,53.00
2023-03-30T18:21:28.169Z,52.90
2023-03-30T18:23:56.891Z,52.90
2023-03-30T18:26:24.717Z,52.90
2023-03-30T18:28:52.633Z,52.90
2023-03-30T18:31:20.945Z,52.90
2023-03-30T18:33:51.003Z,52.90
2023-03-30T18:36:21.709Z,53.00
2023-03-30T18:38:51.269Z,52.90
2023-03-30T18:41:19.102Z,52.90
2023-03-30T18:43:46.961Z,53.00
2023-03-30T18:46:14.927Z,53.00
2023-03-30T18:48:42.855Z,52.90
2023-03-30T18:51:12.798Z,52.90
2023-03-30T18:53:40.697Z,52.90
2023-03-30T18:56:13.623Z,53.00
2023-03-30T18:58:42.612Z,53.00
2023-03-30T19:01:12.755Z,52.90
2023-03-30T19:03:41.774Z,52.90
2023-03-30T19:06:13.795Z,53.00
2023-03-30T19:08:43.362Z,53.00
2023-03-30T19:11:16.256Z,53.70
2023-03-30T19:13:44.110Z,53.00
2023-03-30T19:16:11.978Z,53.00
2023-03-30T19:18:40.010Z,53.00
2023-03-30T19:21:08.319Z,53.00
2023-03-30T19:23:36.277Z,53.00
2023-03-30T19:26:04.140Z,53.00
2023-03-30T19:28:33.373Z,53.00
2023-03-30T19:31:05.443Z,53.10
2023-03-30T19:33:33.587Z,53.10
2023-03-30T19:36:01.505Z,53.00
2023-03-30T19:38:29.386Z,53.00
2023-03-30T19:41:00.881Z,53.00
2023-03-30T19:43:29.007Z,53.00
2023-03-30T19:45:58.475Z,53.10
2023-03-30T19:48:27.287Z,53.10
2023-03-30T19:50:55.186Z,53.00
2023-03-30T19:53:23.033Z,53.00
2023-03-30T19:55:50.889Z,53.00
2023-03-30T19:58:18.751Z,53.00
2023-03-30T20:00:49.420Z,53.00
2023-03-30T20:03:18.818Z,53.00
2023-03-30T20:05:50.786Z,53.00
2023-03-30T20:08:24.248Z,53.00
2023-03-30T20:10:53.261Z,53.00
2023-03-30T20:13:22.046Z,53.00
2023-03-30T20:15:54.225Z,53.00
2023-03-30T20:18:23.628Z,53.00
2023-03-30T20:20:51.579Z,53.00
2023-03-30T20:23:19.490Z,53.00
2023-03-30T20:25:49.409Z,53.10
2023-03-30T20:28:17.708Z,53.00
2023-03-30T20:30:45.593Z,53.00
2023-03-30T20:33:13.468Z,53.00
2023-03-30T20:35:43.074Z,53.00
2023-03-30T20:38:11.064Z,53.00
2023-03-30T20:40:38.946Z,53.00
2023-03-30T20:43:10.635Z,53.00
2023-03-30T20:45:46.132Z,53.00
2023-03-30T20:48:25.914Z,53.00
2023-03-30T20:50:55.898Z,53.00
2023-03-30T20:53:25.481Z,53.00
2023-03-30T20:55:53.354Z,53.00
2023-03-30T20:58:22.291Z,53.00
2023-03-30T21:00:51.918Z,53.00
2023-03-30T21:03:20.320Z,53.00
2023-03-30T21:05:58.623Z,53.00
2023-03-30T21:08:27.928Z,53.00
2023-03-30T21:10:56.222Z,53.00
2023-03-30T21:13:24.096Z,53.00
2023-03-30T21:15:57.370Z,53.00
2023-03-30T21:18:26.248Z,53.00
2023-03-30T21:20:54.544Z,53.00
2023-03-30T21:23:25.233Z,53.00
2023-03-30T21:25:57.304Z,53.00
2023-03-30T21:28:27.103Z,53.00
2023-03-30T21:30:55.764Z,52.90
2023-03-30T21:33:23.832Z,53.00
2023-03-30T21:35:52.529Z,53.00
2023-03-30T21:38:21.872Z,53.00
2023-03-30T21:40:59.120Z,52.90
2023-03-30T21:43:29.610Z,52.90
2023-03-30T21:45:59.305Z,52.90
2023-03-30T21:48:28.818Z,52.90
2023-03-30T21:51:00.912Z,53.60
2023-03-30T21:53:29.882Z,52.90
2023-03-30T21:55:59.614Z,52.90
2023-03-30T21:58:27.889Z,53.00
2023-03-30T22:01:08.869Z,52.90
2023-03-30T22:03:39.330Z,52.90
2023-03-30T22:06:09.785Z,52.90
2023-03-30T22:08:37.762Z,52.90
2023-03-30T22:11:09.173Z,52.90
2023-03-30T22:13:37.043Z,52.90
2023-03-30T22:16:06.593Z,52.90
2023-03-30T22:18:35.070Z,52.90
2023-03-30T22:21:05.014Z,52.90
2023-03-30T22:23:33.644Z,52.90
2023-03-30T22:26:01.542Z,52.90
2023-03-30T22:28:30.950Z,53.00
2023-03-30T22:30:58.833Z,53.00
2023-03-30T22:33:28.211Z,52.90
2023-03-30T22:35:57.079Z,53.00
2023-03-30T22:38:25.384Z,53.00
2023-03-30T22:41:02.569Z,52.90
2023-03-30T22:43:34.086Z,53.00
2023-03-30T22:46:02.107Z,53.10
2023-03-30T22:48:30.313Z,53.00
2023-03-30T22:51:02.119Z,53.00
2023-03-30T22:53:30.346Z,53.00
2023-03-30T22:55:58.668Z,53.00
2023-03-30T22:58:26.627Z,53.00
2023-03-30T23:01:00.891Z,53.00
2023-03-30T23:03:29.145Z,53.00
2023-03-30T23:06:00.732Z,53.00
2023-03-30T23:08:29.458Z,53.00
2023-03-30T23:10:57.715Z,53.00
2023-03-30T23:13:25.606Z,53.00
2023-03-30T23:15:56.144Z,53.00
2023-03-30T23:18:24.177Z,53.00
2023-03-30T23:20:53.988Z,53.00
2023-03-30T23:23:22.026Z,53.60
2023-03-30T23:25:51.060Z,53.00
2023-03-30T23:28:19.466Z,53.00
2023-03-30T23:30:47.367Z,53.00
2023-03-30T23:33:16.685Z,53.00
2023-03-30T23:35:49.064Z,53.00
2023-03-30T23:38:17.183Z,53.00
2023-03-30T23:40:45.381Z,53.00
2023-03-30T23:43:13.213Z,53.00
2023-03-30T23:45:42.845Z,52.90
2023-03-30T23:48:10.756Z,53.00
2023-03-30T23:50:39.986Z,52.90
2023-03-30T23:53:09.346Z,53.00
2023-03-30T23:55:37.616Z,52.90
2023-03-30T23:58:05.606Z,52.90
